Time;durP1;ratioP1;P1;durP2;ratioP2;P2;SDS_P1;SDS_P2;PMS_P1;PMS_P2;Temp;Humidity;BMP_temperature;BMP_pressure;BME280_temperature;BME280_humidity;BME280_pressure;Samples;Min_cycle;Max_cycle;Signal;HPM_P1;HPM_P2
2021/04/28 00:00:25;;;;;;;16.08;5.53;;;2.60;99.90;;;;;;5015007;28;20061;-76
2021/04/28 00:02:50;;;;;;;18.65;6.13;;;2.50;99.90;;;;;;5014880;28;20077;-76
2021/04/28 00:05:16;;;;;;;11.38;6.00;;;2.50;99.90;;;;;;5013848;28;20034;-76
2021/04/28 00:07:43;;;;;;;9.55;6.10;;;2.50;99.90;;;;;;5014539;28;20037;-76
2021/04/28 00:10:11;;;;;;;12.32;5.50;;;2.50;99.90;;;;;;5014620;28;20030;-76
2021/04/28 00:12:37;;;;;;;12.15;5.78;;;2.50;99.90;;;;;;5014663;28;20030;-76
2021/04/28 00:15:10;;;;;;;9.75;6.13;;;2.50;99.90;;;;;;5012001;28;20025;-76
2021/04/28 00:17:35;;;;;;;10.93;5.97;;;2.50;99.90;;;;;;5013481;28;20139;-76
2021/04/28 00:20:04;;;;;;;16.33;6.45;;;2.50;99.90;;;;;;5013923;28;20541;-76
2021/04/28 00:22:29;;;;;;;9.93;5.90;;;2.50;99.90;;;;;;5014559;28;20162;-76
2021/04/28 00:24:55;;;;;;;12.43;5.43;;;2.50;99.90;;;;;;5012223;28;20547;-76
2021/04/28 00:27:20;;;;;;;7.53;5.05;;;2.50;99.90;;;;;;5014494;28;20038;-76
2021/04/28 00:29:46;;;;;;;8.93;5.78;;;2.40;99.90;;;;;;5014237;28;20063;-76
2021/04/28 00:32:13;;;;;;;10.07;5.45;;;2.40;99.90;;;;;;5014332;28;20049;-76
2021/04/28 00:34:39;;;;;;;15.30;7.13;;;2.30;99.90;;;;;;5012812;28;20028;-76
2021/04/28 00:37:04;;;;;;;7.95;5.20;;;2.20;99.90;;;;;;5014236;28;20109;-76
2021/04/28 00:39:30;;;;;;;11.30;5.72;;;2.00;99.90;;;;;;5012754;28;20062;-76
2021/04/28 00:41:56;;;;;;;7.05;4.93;;;1.90;99.90;;;;;;5014171;28;20061;-76
2021/04/28 00:44:22;;;;;;;10.00;6.03;;;1.90;99.90;;;;;;5013303;28;20026;-76
2021/04/28 00:46:48;;;;;;;12.63;5.35;;;1.80;99.90;;;;;;5013789;28;20033;-76
2021/04/28 00:49:14;;;;;;;11.02;6.05;;;1.70;99.90;;;;;;5013665;28;20030;-76
2021/04/28 00:51:39;;;;;;;12.38;6.30;;;1.70;99.90;;;;;;5013848;28;20029;-76
2021/04/28 00:54:05;;;;;;;14.98;5.63;;;1.70;99.90;;;;;;5012044;28;20435;-76
2021/04/28 00:56:31;;;;;;;11.55;5.60;;;1.70;99.90;;;;;;5012866;28;20034;-76
2021/04/28 00:58:57;;;;;;;11.07;5.93;;;1.70;99.90;;;;;;5013108;28;20029;-76
2021/04/28 01:01:23;;;;;;;9.35;5.72;;;1.70;99.90;;;;;;5013744;28;20487;-76
2021/04/28 01:03:49;;;;;;;15.20;5.88;;;1.70;99.90;;;;;;5013082;28;20084;-76
2021/04/28 01:06:15;;;;;;;11.05;6.57;;;1.70;99.90;;;;;;5012838;28;20022;-76
2021/04/28 01:08:41;;;;;;;13.65;6.40;;;1.80;99.90;;;;;;5013593;28;20390;-76
2021/04/28 01:11:07;;;;;;;16.90;6.80;;;1.90;99.90;;;;;;5012178;28;20022;-76
2021/04/28 01:13:34;;;;;;;10.27;5.78;;;1.90;99.90;;;;;;5013430;28;20509;-76
2021/04/28 01:16:01;;;;;;;12.40;6.18;;;1.90;99.90;;;;;;5011767;28;20087;-76
2021/04/28 01:18:26;;;;;;;17.00;6.03;;;1.90;99.90;;;;;;5013494;28;20033;-76
2021/04/28 01:20:52;;;;;;;10.85;6.40;;;1.90;99.90;;;;;;5012833;28;20391;-76
2021/04/28 01:23:19;;;;;;;13.18;5.78;;;1.90;99.90;;;;;;5013314;28;20510;-76
2021/04/28 01:25:45;;;;;;;12.93;6.60;;;1.90;99.90;;;;;;5012500;28;20038;-76
2021/04/28 01:28:19;;;;;;;12.57;6.38;;;1.90;99.90;;;;;;5013188;28;20478;-76
2021/04/28 01:30:56;;;;;;;13.50;7.00;;;1.90;99.90;;;;;;5013046;28;20034;-76
2021/04/28 01:33:26;;;;;;;15.13;6.95;;;1.90;99.90;;;;;;5013189;28;20037;-75
2021/04/28 01:35:56;;;;;;;12.80;6.85;;;1.90;99.90;;;;;;5011616;28;20486;-76
2021/04/28 01:38:25;;;;;;;15.75;7.40;;;1.80;99.90;;;;;;5013144;28;20054;-76
2021/04/28 01:40:51;;;;;;;16.67;6.68;;;1.80;99.90;;;;;;5012829;28;20030;-76
2021/04/28 01:43:18;;;;;;;10.60;6.07;;;1.80;99.90;;;;;;5012871;28;20103;-76
2021/04/28 01:45:47;;;;;;;13.77;6.57;;;1.70;99.90;;;;;;5010899;28;20165;-76
2021/04/28 01:48:13;;;;;;;10.45;6.70;;;1.70;99.90;;;;;;5013027;28;20063;-76
2021/04/28 01:50:39;;;;;;;14.38;7.45;;;1.60;99.90;;;;;;5021309;28;20109;-76
2021/04/28 01:53:05;;;;;;;15.38;6.82;;;1.60;99.90;;;;;;5012903;28;20025;-76
2021/04/28 01:55:33;;;;;;;14.40;6.70;;;1.50;99.90;;;;;;5025361;28;20032;-76
2021/04/28 01:58:02;;;;;;;10.63;6.53;;;1.40;99.90;;;;;;5011308;28;20030;-76
2021/04/28 02:00:27;;;;;;;12.38;5.93;;;1.30;99.90;;;;;;5012803;28;20493;-76
2021/04/28 02:02:53;;;;;;;11.57;5.90;;;1.30;99.90;;;;;;5011369;28;20026;-76
2021/04/28 02:05:21;;;;;;;13.88;6.05;;;1.20;99.90;;;;;;5011402;28;20478;-76
2021/04/28 02:07:47;;;;;;;18.08;6.28;;;1.20;99.90;;;;;;5012171;28;20028;-76
2021/04/28 02:10:14;;;;;;;11.68;6.78;;;1.20;99.90;;;;;;5012510;28;20030;-76
2021/04/28 02:12:40;;;;;;;13.10;6.88;;;1.20;99.90;;;;;;5010761;28;20871;-76
2021/04/28 02:15:08;;;;;;;15.05;6.03;;;1.20;99.90;;;;;;5010436;28;20117;-76
2021/04/28 02:17:36;;;;;;;11.02;6.30;;;1.10;99.90;;;;;;5012326;28;20026;-76
2021/04/28 02:20:05;;;;;;;8.57;5.45;;;1.10;99.90;;;;;;5010866;28;20041;-76
2021/04/28 02:22:32;;;;;;;12.90;5.45;;;1.00;99.90;;;;;;5011954;28;20036;-76
2021/04/28 02:24:57;;;;;;;21.33;6.72;;;1.00;99.90;;;;;;5010983;28;20052;-76
2021/04/28 02:27:23;;;;;;;10.85;6.82;;;0.90;99.90;;;;;;5012147;28;20398;-76
2021/04/28 02:29:49;;;;;;;18.10;7.35;;;0.90;99.90;;;;;;5010198;28;20026;-76
2021/04/28 02:32:15;;;;;;;11.75;6.32;;;0.80;99.90;;;;;;5011862;28;20069;-76
2021/04/28 02:34:41;;;;;;;9.68;6.38;;;0.80;99.90;;;;;;5011162;28;20022;-76
2021/04/28 02:37:07;;;;;;;14.85;6.63;;;0.70;99.90;;;;;;5010812;28;20112;-76
2021/04/28 02:39:41;;;;;;;9.73;5.78;;;0.70;99.90;;;;;;5011864;28;20394;-76
2021/04/28 02:42:08;;;;;;;11.60;5.93;;;0.60;99.90;;;;;;5011838;28;20060;-76
2021/04/28 02:44:35;;;;;;;12.75;6.28;;;0.60;99.90;;;;;;5009853;28;20396;-76
2021/04/28 02:47:04;;;;;;;10.93;6.07;;;0.50;99.90;;;;;;5012003;28;20026;-76
2021/04/28 02:49:31;;;;;;;10.52;5.85;;;0.50;99.90;;;;;;5011392;28;20026;-76
2021/04/28 02:51:58;;;;;;;16.33;7.20;;;0.40;99.90;;;;;;5010423;28;20026;-76
2021/04/28 02:54:24;;;;;;;11.88;6.60;;;0.40;99.90;;;;;;5011149;28;20490;-76
2021/04/28 02:56:52;;;;;;;9.80;5.43;;;0.40;99.90;;;;;;5011803;28;20026;-75
2021/04/28 02:59:19;;;;;;;7.38;5.47;;;0.30;99.90;;;;;;5010905;28;20066;-76
2021/04/28 03:01:46;;;;;;;11.48;6.78;;;0.30;99.90;;;;;;5011727;28;20406;-76
2021/04/28 03:04:15;;;;;;;11.63;6.60;;;0.30;99.90;;;;;;5010905;28;20026;-75
2021/04/28 03:06:41;;;;;;;11.55;5.57;;;0.30;99.90;;;;;;4992225;28;20026;-76
2021/04/28 03:09:06;;;;;;;15.90;8.07;;;0.20;99.90;;;;;;4992075;28;20060;-76
2021/04/28 03:11:33;;;;;;;25.75;13.43;;;0.20;99.90;;;;;;5009909;28;20062;-76
2021/04/28 03:13:59;;;;;;;20.40;11.75;;;0.20;99.90;;;;;;5011106;28;20030;-76
2021/04/28 03:16:25;;;;;;;20.38;11.00;;;0.20;99.90;;;;;;5010434;28;20037;-76
2021/04/28 03:18:51;;;;;;;16.67;9.00;;;0.10;99.90;;;;;;5011737;28;20056;-76
2021/04/28 03:21:19;;;;;;;14.88;7.28;;;0.10;99.90;;;;;;5009799;28;20368;-76
2021/04/28 03:23:45;;;;;;;13.20;6.82;;;0.10;99.90;;;;;;5009614;28;20398;-76
2021/04/28 03:26:11;;;;;;;18.45;9.02;;;0.00;99.90;;;;;;5011492;28;20026;-75
2021/04/28 03:28:37;;;;;;;20.50;9.55;;;0.00;99.90;;;;;;5010159;28;20045;-76
2021/04/28 03:31:04;;;;;;;13.20;8.10;;;0.00;99.90;;;;;;5013421;28;20022;-76
2021/04/28 03:33:30;;;;;;;14.82;9.35;;;0.00;99.90;;;;;;5015552;28;20021;-76
2021/04/28 03:35:56;;;;;;;23.70;9.48;;;0.00;99.90;;;;;;5014580;28;20541;-75
2021/04/28 03:38:22;;;;;;;17.75;9.32;;;0.00;99.90;;;;;;5015547;28;20564;-75
2021/04/28 03:40:47;;;;;;;16.17;8.15;;;-0.10;99.90;;;;;;5014163;28;20030;-76
2021/04/28 03:43:13;;;;;;;14.77;7.32;;;-0.10;99.90;;;;;;5015337;28;20053;-76
2021/04/28 03:45:38;;;;;;;15.35;7.72;;;-0.10;99.90;;;;;;5014709;28;20037;-76
2021/04/28 03:48:04;;;;;;;9.93;5.75;;;-0.10;99.90;;;;;;5015276;28;20040;-76
2021/04/28 03:50:30;;;;;;;12.23;6.78;;;-0.20;99.90;;;;;;5014584;28;20112;-76
2021/04/28 03:52:56;;;;;;;12.98;5.50;;;-0.20;99.90;;;;;;5015312;28;20057;-76
2021/04/28 03:55:21;;;;;;;10.23;5.85;;;-0.20;99.90;;;;;;5014537;28;20533;-75
2021/04/28 03:57:47;;;;;;;13.32;6.40;;;-0.20;99.90;;;;;;5013861;28;20026;-76
2021/04/28 04:00:13;;;;;;;10.85;6.40;;;-0.20;99.90;;;;;;5013405;28;20034;-76
2021/04/28 04:02:39;;;;;;;13.75;6.32;;;-0.20;99.90;;;;;;5015029;28;20022;-76
2021/04/28 04:05:05;;;;;;;10.20;6.55;;;-0.30;99.90;;;;;;5013923;28;20101;-76
2021/04/28 04:07:31;;;;;;;9.30;5.25;;;-0.20;99.90;;;;;;5014986;28;20026;-76
2021/04/28 04:09:56;;;;;;;15.27;6.78;;;-0.20;99.90;;;;;;5014419;28;20049;-76
2021/04/28 04:12:22;;;;;;;10.35;6.20;;;-0.20;99.90;;;;;;5013006;28;20087;-76
2021/04/28 04:14:47;;;;;;;9.77;5.75;;;-0.20;99.90;;;;;;5012579;28;20033;-76
2021/04/28 04:17:13;;;;;;;15.52;6.57;;;-0.20;99.90;;;;;;5013559;28;20021;-76
2021/04/28 04:19:39;;;;;;;9.25;5.43;;;-0.10;99.90;;;;;;5010612;28;20561;-75
2021/04/28 04:22:04;;;;;;;16.70;5.90;;;-0.10;99.90;;;;;;4995108;28;20030;-75
2021/04/28 04:24:30;;;;;;;10.18;6.28;;;0.00;99.90;;;;;;4993035;28;20127;-76
2021/04/28 04:26:56;;;;;;;10.50;6.28;;;0.10;99.90;;;;;;4995016;28;20501;-76
2021/04/28 04:29:23;;;;;;;16.70;7.25;;;0.10;99.90;;;;;;4995010;28;20499;-76
2021/04/28 04:31:48;;;;;;;21.42;6.72;;;0.20;99.90;;;;;;5013902;28;20026;-75
2021/04/28 04:34:14;;;;;;;17.33;6.80;;;0.30;99.90;;;;;;5013479;28;20048;-75
2021/04/28 04:36:39;;;;;;;17.60;6.22;;;0.40;99.90;;;;;;5014170;28;20050;-76
2021/04/28 04:39:05;;;;;;;14.65;5.80;;;0.50;99.90;;;;;;5012842;28;20068;-76
2021/04/28 04:41:32;;;;;;;8.93;5.43;;;0.60;99.90;;;;;;5012684;28;20044;-76
2021/04/28 04:43:58;;;;;;;15.43;6.70;;;0.80;99.90;;;;;;5013542;28;20026;-76
2021/04/28 04:46:23;;;;;;;12.43;5.47;;;1.00;99.90;;;;;;5014101;28;20025;-76
2021/04/28 04:48:49;;;;;;;10.25;5.63;;;1.10;99.90;;;;;;5013833;28;20030;-76
2021/04/28 04:51:15;;;;;;;11.77;4.90;;;1.20;99.90;;;;;;5013554;28;20482;-76
2021/04/28 04:53:40;;;;;;;10.05;4.75;;;1.40;99.90;;;;;;5013509;28;20026;-76
2021/04/28 04:56:06;;;;;;;13.90;5.03;;;1.50;99.90;;;;;;5012629;28;20073;-76
2021/04/28 04:58:32;;;;;;;7.75;4.60;;;1.70;99.90;;;;;;5012745;28;20034;-76
2021/04/28 05:00:57;;;;;;;11.27;4.90;;;1.80;99.90;;;;;;5012843;28;20048;-76
2021/04/28 05:03:23;;;;;;;9.63;5.22;;;2.00;99.90;;;;;;5013923;28;20040;-75
2021/04/28 05:05:48;;;;;;;11.48;5.18;;;2.10;99.90;;;;;;5012792;28;20045;-76
2021/04/28 05:08:14;;;;;;;7.28;4.00;;;2.20;99.90;;;;;;5012357;28;20502;-76
2021/04/28 05:10:41;;;;;;;10.25;5.82;;;2.30;99.90;;;;;;5013256;28;20037;-76
2021/04/28 05:13:07;;;;;;;12.23;4.18;;;2.50;99.90;;;;;;5013328;28;20029;-76
2021/04/28 05:15:32;;;;;;;15.57;4.35;;;2.60;99.90;;;;;;5012915;28;20033;-76
2021/04/28 05:17:59;;;;;;;10.32;4.57;;;2.70;99.90;;;;;;5013647;28;20029;-76
2021/04/28 05:20:25;;;;;;;9.32;4.15;;;2.80;99.90;;;;;;5012563;28;20026;-75
2021/04/28 05:22:50;;;;;;;11.32;3.92;;;2.90;99.90;;;;;;5013328;28;20030;-75
2021/04/28 05:25:16;;;;;;;15.13;4.35;;;3.00;99.90;;;;;;5011655;28;20081;-76
2021/04/28 05:27:42;;;;;;;19.02;4.47;;;3.10;99.90;;;;;;5013303;28;20513;-75
2021/04/28 05:30:09;;;;;;;6.03;3.92;;;3.20;99.90;;;;;;5012828;28;20018;-76
2021/04/28 05:32:34;;;;;;;6.68;3.88;;;3.30;99.90;;;;;;5013150;28;20041;-75
2021/04/28 05:35:00;;;;;;;8.20;3.40;;;3.40;99.90;;;;;;5012362;28;20025;-75
2021/04/28 05:37:26;;;;;;;6.63;3.72;;;3.50;99.90;;;;;;5013127;28;20068;-75
2021/04/28 05:39:51;;;;;;;9.63;3.47;;;3.50;99.90;;;;;;5012311;28;20486;-76
2021/04/28 05:42:18;;;;;;;5.47;3.08;;;3.70;99.90;;;;;;4994029;28;20112;-75
2021/04/28 05:44:46;;;;;;;6.30;3.28;;;3.80;99.90;;;;;;4992894;28;20105;-76
2021/04/28 05:47:12;;;;;;;10.57;3.20;;;4.00;99.90;;;;;;4992259;28;20038;-76
2021/04/28 05:49:38;;;;;;;8.18;3.15;;;4.20;99.90;;;;;;4996466;28;20030;-76
2021/04/28 05:52:04;;;;;;;9.75;3.38;;;4.40;99.90;;;;;;5011617;28;20029;-76
2021/04/28 05:54:29;;;;;;;4.15;3.05;;;4.50;99.90;;;;;;5011321;28;20026;-76
2021/04/28 05:56:56;;;;;;;10.18;3.35;;;4.70;99.90;;;;;;5012901;28;20462;-76
2021/04/28 05:59:22;;;;;;;9.75;3.28;;;4.90;99.90;;;;;;5012820;28;20022;-76
2021/04/28 06:01:47;;;;;;;5.50;3.15;;;5.20;99.90;;;;;;5005863;28;20372;-76
2021/04/28 06:04:13;;;;;;;11.68;3.78;;;5.40;99.90;;;;;;4993321;28;20079;-76
2021/04/28 06:06:38;;;;;;;6.43;3.05;;;5.60;99.90;;;;;;5012354;28;20034;-76
2021/04/28 06:09:04;;;;;;;10.52;4.00;;;5.80;99.90;;;;;;5012514;28;20108;-76
2021/04/28 06:11:30;;;;;;;11.60;3.25;;;6.00;99.90;;;;;;5012172;28;20375;-76
2021/04/28 06:13:56;;;;;;;6.95;3.28;;;6.30;99.90;;;;;;5011167;28;20038;-76
2021/04/28 06:16:23;;;;;;;12.02;4.32;;;6.50;99.90;;;;;;5012378;28;20505;-76
2021/04/28 06:18:49;;;;;;;8.52;3.15;;;6.60;99.90;;;;;;5012381;28;20036;-76
2021/04/28 06:21:15;;;;;;;18.35;3.70;;;6.80;99.90;;;;;;5011355;28;20026;-76
2021/04/28 06:23:40;;;;;;;7.85;3.42;;;7.10;99.90;;;;;;5010562;28;20536;-76
2021/04/28 06:26:06;;;;;;;8.80;3.17;;;7.30;99.90;;;;;;5011940;28;20034;-76
2021/04/28 06:28:32;;;;;;;12.18;3.28;;;7.50;99.90;;;;;;5012157;28;20501;-76
2021/04/28 06:30:58;;;;;;;7.18;3.58;;;7.60;99.90;;;;;;5011706;28;20030;-76
2021/04/28 06:33:24;;;;;;;7.55;3.38;;;7.50;99.90;;;;;;5010897;28;20022;-76
2021/04/28 06:35:49;;;;;;;8.88;3.45;;;7.40;99.90;;;;;;5011134;28;20045;-76
2021/04/28 06:38:15;;;;;;;7.55;3.95;;;7.40;99.90;;;;;;5012032;28;20390;-76
2021/04/28 06:40:41;;;;;;;6.93;3.13;;;7.60;99.90;;;;;;5010023;28;20030;-76
2021/04/28 06:43:07;;;;;;;8.32;3.40;;;7.90;99.90;;;;;;5011910;28;20508;-76
2021/04/28 06:45:35;;;;;;;10.80;3.75;;;8.20;99.90;;;;;;5011186;28;20026;-76
2021/04/28 06:48:05;;;;;;;5.60;2.75;;;8.40;99.90;;;;;;5010577;28;20032;-77
2021/04/28 06:50:31;;;;;;;7.65;3.83;;;8.70;99.90;;;;;;5010873;28;20108;-76
2021/04/28 06:52:57;;;;;;;7.63;3.40;;;8.90;99.90;;;;;;5011689;28;20100;-76
2021/04/28 06:55:22;;;;;;;8.73;3.08;;;9.10;99.90;;;;;;5011207;28;20025;-76
2021/04/28 06:57:55;;;;;;;7.63;3.78;;;9.30;99.90;;;;;;5011949;28;20030;-76
2021/04/28 07:00:22;;;;;;;9.25;3.88;;;9.50;99.90;;;;;;5003816;28;20398;-76
2021/04/28 07:02:48;;;;;;;10.70;3.47;;;9.60;99.90;;;;;;4992036;28;20041;-76
2021/04/28 07:05:14;;;;;;;6.18;3.42;;;9.70;99.90;;;;;;4995632;28;20117;-76
2021/04/28 07:07:39;;;;;;;6.80;3.30;;;10.00;99.90;;;;;;4992176;28;20122;-76
2021/04/28 07:10:07;;;;;;;10.30;3.70;;;10.20;99.90;;;;;;4994215;28;20088;-76
2021/04/28 07:12:33;;;;;;;11.10;4.03;;;10.40;99.90;;;;;;5011021;28;20120;-77
2021/04/28 07:14:58;;;;;;;8.55;3.88;;;10.50;99.90;;;;;;5010808;28;20479;-77
2021/04/28 07:17:24;;;;;;;13.02;3.90;;;10.80;99.90;;;;;;5011473;28;20034;-77
2021/04/28 07:19:49;;;;;;;7.97;4.25;;;11.00;99.90;;;;;;5010638;28;20049;-76
2021/04/28 07:22:15;;;;;;;9.50;4.65;;;11.20;99.90;;;;;;5011581;28;20034;-76
2021/04/28 07:24:40;;;;;;;16.13;4.97;;;11.10;99.90;;;;;;5010770;28;20148;-77
2021/04/28 07:27:06;;;;;;;16.83;5.03;;;11.40;99.90;;;;;;5010209;28;20026;-77
2021/04/28 07:29:31;;;;;;;13.20;5.10;;;11.60;99.90;;;;;;4999805;28;21831;-76
2021/04/28 07:32:01;;;;;;;9.23;4.22;;;11.70;99.90;;;;;;5002175;28;20658;-76
2021/04/28 07:34:27;;;;;;;10.68;4.70;;;11.70;99.90;;;;;;5000572;28;20030;-75
2021/04/28 07:36:53;;;;;;;14.95;4.82;;;11.80;99.90;;;;;;4989316;28;20026;-76
2021/04/28 07:39:18;;;;;;;9.93;4.88;;;11.90;99.90;;;;;;5004880;28;20037;-76
2021/04/28 07:41:44;;;;;;;10.48;4.55;;;12.10;99.90;;;;;;5004383;28;20125;-75
2021/04/28 07:44:10;;;;;;;8.70;3.95;;;12.10;99.90;;;;;;5002210;28;20033;-76
2021/04/28 07:46:36;;;;;;;9.35;4.30;;;12.30;99.90;;;;;;5000223;28;20037;-76
2021/04/28 07:49:04;;;;;;;15.73;4.25;;;12.40;99.90;;;;;;5004821;28;20386;-75
2021/04/28 07:51:33;;;;;;;5.53;3.63;;;12.70;99.90;;;;;;5004844;28;20494;-75
2021/04/28 07:53:59;;;;;;;18.75;4.60;;;12.70;99.90;;;;;;4997189;28;20026;-76
2021/04/28 07:56:25;;;;;;;8.52;4.13;;;12.90;99.90;;;;;;4999838;28;22003;-75
2021/04/28 07:58:52;;;;;;;11.73;4.32;;;13.10;99.90;;;;;;5004481;28;20021;-76
2021/04/28 08:01:18;;;;;;;9.60;4.45;;;13.20;99.90;;;;;;4987280;28;20478;-76
2021/04/28 08:03:44;;;;;;;8.45;4.97;;;13.60;99.90;;;;;;4987421;28;20107;-76
2021/04/28 08:06:09;;;;;;;7.53;4.38;;;13.60;99.90;;;;;;4997973;28;20112;-76
2021/04/28 08:08:35;;;;;;;16.15;4.60;;;13.60;99.90;;;;;;5004814;28;20026;-76
2021/04/28 08:11:01;;;;;;;12.63;4.60;;;13.90;99.90;;;;;;4988299;28;20027;-75
2021/04/28 08:13:27;;;;;;;9.93;3.95;;;14.00;99.90;;;;;;5003830;28;20077;-75
2021/04/28 08:15:52;;;;;;;11.20;5.10;;;14.10;99.90;;;;;;5012447;28;20030;-75
2021/04/28 08:18:18;;;;;;;13.35;5.10;;;14.20;99.90;;;;;;5000112;28;20030;-76
2021/04/28 08:20:45;;;;;;;11.50;4.78;;;14.20;99.90;;;;;;5002330;28;20034;-76
2021/04/28 08:23:11;;;;;;;12.35;4.70;;;14.20;99.90;;;;;;5008381;28;20029;-76
2021/04/28 08:25:37;;;;;;;11.98;5.47;;;14.30;99.90;;;;;;5007308;28;20038;-75
2021/04/28 08:28:04;;;;;;;10.02;5.78;;;14.40;99.90;;;;;;4995706;28;20108;-77
2021/04/28 08:30:29;;;;;;;11.07;4.47;;;14.50;99.90;;;;;;5012678;28;20653;-76
2021/04/28 08:32:56;;;;;;;8.48;4.53;;;14.50;99.90;;;;;;5013141;28;20029;-76
2021/04/28 08:35:21;;;;;;;14.45;5.50;;;14.80;99.90;;;;;;5013454;28;20491;-76
2021/04/28 08:37:48;;;;;;;9.18;5.82;;;14.80;99.90;;;;;;5013252;28;20076;-76
2021/04/28 08:40:15;;;;;;;8.20;4.65;;;14.70;99.90;;;;;;5012900;28;20483;-76
2021/04/28 08:42:42;;;;;;;10.73;5.40;;;14.90;99.90;;;;;;5014274;28;20038;-76
2021/04/28 08:45:08;;;;;;;11.73;5.18;;;15.10;99.90;;;;;;5012960;28;20101;-77
2021/04/28 08:47:35;;;;;;;7.82;4.50;;;15.20;99.90;;;;;;5014113;28;20034;-77
2021/04/28 08:50:00;;;;;;;12.27;5.30;;;15.20;99.90;;;;;;5013814;28;20428;-77
2021/04/28 08:52:27;;;;;;;9.38;4.93;;;15.30;99.90;;;;;;5014138;28;20026;-77
2021/04/28 08:54:52;;;;;;;13.23;5.03;;;15.40;99.90;;;;;;5013102;28;20076;-77
2021/04/28 08:57:19;;;;;;;10.85;4.75;;;15.30;99.90;;;;;;5014214;28;20449;-77
2021/04/28 08:59:45;;;;;;;11.00;5.32;;;15.10;99.90;;;;;;5013798;28;20025;-77
2021/04/28 09:02:26;;;;;;;12.52;5.05;;;15.20;99.90;;;;;;5013922;28;20041;-78
2021/04/28 09:05:13;;;;;;;11.30;5.50;;;15.30;99.90;;;;;;5011494;28;20038;-77
2021/04/28 09:07:40;;;;;;;8.60;4.43;;;15.00;99.90;;;;;;5029068;28;20026;-77
2021/04/28 09:10:15;;;;;;;10.55;5.55;;;15.20;99.90;;;;;;5028795;28;20486;-77
2021/04/28 09:12:59;;;;;;;24.85;5.80;;;15.60;99.90;;;;;;5029052;28;20054;-77
2021/04/28 09:15:42;;;;;;;10.95;5.55;;;15.80;99.90;;;;;;5012896;28;20026;-78
2021/04/28 09:18:19;;;;;;;15.00;6.32;;;16.00;99.90;;;;;;5011897;28;20460;-78
2021/04/28 09:20:52;;;;;;;8.32;4.95;;;16.30;99.90;;;;;;5013050;28;20025;-77
2021/04/28 09:23:27;;;;;;;70.07;6.75;;;16.60;98.70;;;;;;5013676;28;20029;-77
2021/04/28 09:25:55;;;;;;;11.52;6.20;;;16.40;94.60;;;;;;5012071;28;20022;-77
2021/04/28 09:28:31;;;;;;;18.90;5.85;;;16.60;95.40;;;;;;5013470;28;20021;-78
2021/04/28 09:31:18;;;;;;;12.95;6.05;;;16.60;91.90;;;;;;5013293;28;20030;-77
2021/04/28 09:33:44;;;;;;;37.88;6.88;;;16.70;84.60;;;;;;5012450;28;20037;-77
2021/04/28 09:36:14;;;;;;;28.20;6.65;;;17.10;83.60;;;;;;5000259;28;20083;-76
2021/04/28 09:39:02;;;;;;;10.77;6.40;;;17.20;78.00;;;;;;5006496;28;20159;-77
2021/04/28 09:41:40;;;;;;;55.35;8.98;;;17.30;71.90;;;;;;4999091;28;20041;-78
2021/04/28 09:44:23;;;;;;;21.90;5.18;;;17.70;73.20;;;;;;4996614;28;20061;-77
2021/04/28 09:47:05;;;;;;;9.60;5.20;;;17.50;67.70;;;;;;4991863;28;20022;-78
2021/04/28 09:49:50;;;;;;;20.17;5.57;;;17.40;76.90;;;;;;5007376;28;20030;-78
2021/04/28 09:52:29;;;;;;;5.95;4.30;;;17.10;68.50;;;;;;4999484;28;20034;-79
2021/04/28 09:54:58;;;;;;;8.10;5.30;;;17.30;67.50;;;;;;5005113;28;20054;-78
2021/04/28 09:57:39;;;;;;;9.52;5.03;;;17.60;75.30;;;;;;4996655;28;20072;-78
2021/04/28 10:00:20;;;;;;;13.63;5.22;;;18.30;72.60;;;;;;5002601;28;20046;-78
2021/04/28 10:03:01;;;;;;;17.50;4.45;;;18.40;66.50;;;;;;5004518;28;20029;-77
2021/04/28 10:05:33;;;;;;;10.25;4.57;;;17.70;60.50;;;;;;4990649;28;20061;-77
2021/04/28 10:08:12;;;;;;;6.40;4.32;;;17.10;58.80;;;;;;4990516;28;20502;-77
2021/04/28 10:11:00;;;;;;;12.48;4.85;;;17.10;63.90;;;;;;4990516;28;20466;-77
2021/04/28 10:13:26;;;;;;;10.95;4.50;;;17.50;63.10;;;;;;4998013;28;20027;-77
2021/04/28 10:15:52;;;;;;;10.60;5.20;;;17.60;64.60;;;;;;4996558;28;20029;-76
2021/04/28 10:18:21;;;;;;;7.95;4.35;;;18.00;62.10;;;;;;5005668;28;20026;-77
2021/04/28 10:20:48;;;;;;;11.32;4.45;;;18.70;67.40;;;;;;4999167;28;20045;-77
2021/04/28 10:23:16;;;;;;;10.38;4.15;;;19.30;57.00;;;;;;4998488;28;20105;-76
2021/04/28 10:25:46;;;;;;;10.43;3.80;;;19.20;53.10;;;;;;4995541;28;20088;-76
2021/04/28 10:28:12;;;;;;;8.18;3.50;;;18.40;49.30;;;;;;4999569;28;20018;-76
2021/04/28 10:30:44;;;;;;;12.98;3.90;;;17.50;52.80;;;;;;4997915;28;20132;-76
2021/04/28 10:33:17;;;;;;;10.68;3.22;;;17.40;58.00;;;;;;4997883;28;20046;-76
2021/04/28 10:35:43;;;;;;;8.35;3.97;;;17.00;52.50;;;;;;5002014;28;20037;-76
2021/04/28 10:38:09;;;;;;;6.95;3.60;;;16.50;54.10;;;;;;4999783;28;20517;-77
2021/04/28 10:40:36;;;;;;;6.97;3.63;;;16.80;57.50;;;;;;5006167;28;20395;-77
2021/04/28 10:43:11;;;;;;;8.50;3.10;;;17.10;58.20;;;;;;4998311;28;20077;-77
2021/04/28 10:45:38;;;;;;;5.63;3.92;;;16.80;55.70;;;;;;5004375;28;20057;-76
2021/04/28 10:48:11;;;;;;;6.90;3.30;;;17.20;59.50;;;;;;4997430;28;20057;-76
2021/04/28 10:50:45;;;;;;;7.22;3.25;;;18.00;63.10;;;;;;5005360;28;20058;-77
2021/04/28 10:53:18;;;;;;;9.82;3.55;;;18.70;59.10;;;;;;4989467;28;20058;-76
2021/04/28 10:56:06;;;;;;;4.95;2.97;;;19.10;57.10;;;;;;4997198;28;20893;-77
2021/04/28 10:58:37;;;;;;;8.82;3.10;;;19.30;52.40;;;;;;5002982;28;20092;-78
2021/04/28 11:01:04;;;;;;;10.75;3.47;;;19.20;53.40;;;;;;5003203;28;20368;-77
2021/04/28 11:03:42;;;;;;;9.23;3.53;;;19.10;53.00;;;;;;4996652;28;20026;-77
2021/04/28 11:06:17;;;;;;;11.25;3.85;;;19.10;53.40;;;;;;4998649;28;20034;-77
2021/04/28 11:09:06;;;;;;;10.98;3.70;;;18.50;50.60;;;;;;5010459;28;20395;-77
2021/04/28 11:14:18;;;;;;;5.88;3.08;;;19.00;52.90;;;;;;5011463;28;20041;-77
2021/04/28 11:16:47;;;;;;;14.60;4.57;;;19.40;53.50;;;;;;5010468;28;20655;-77
2021/04/28 11:19:27;;;;;;;12.73;3.78;;;19.50;53.50;;;;;;5009807;28;20022;-77
2021/04/28 11:22:11;;;;;;;7.90;4.35;;;19.20;50.50;;;;;;5011803;28;20034;-76
2021/04/28 11:24:55;;;;;;;5.63;3.70;;;18.10;50.00;;;;;;5007313;28;20426;-77
2021/04/28 11:27:42;;;;;;;18.83;4.13;;;18.20;53.20;;;;;;5004893;28;20072;-77
2021/04/28 11:30:28;;;;;;;10.07;3.63;;;18.70;51.00;;;;;;5005978;28;20022;-77
2021/04/28 11:33:15;;;;;;;8.07;3.42;;;18.80;49.20;;;;;;4996804;28;20130;-77
2021/04/28 11:35:53;;;;;;;9.98;3.80;;;19.10;53.70;;;;;;5000606;28;20028;-77
2021/04/28 11:38:19;;;;;;;5.47;3.45;;;19.40;51.00;;;;;;5005354;28;20021;-77
2021/04/28 11:40:51;;;;;;;13.75;4.32;;;19.70;49.00;;;;;;4998048;28;20065;-77
2021/04/28 11:43:18;;;;;;;9.55;3.67;;;19.80;48.80;;;;;;4995166;28;20403;-78
2021/04/28 11:45:44;;;;;;;6.20;3.58;;;19.60;48.20;;;;;;4995917;28;20033;-78
2021/04/28 11:48:23;;;;;;;6.75;3.67;;;19.90;48.60;;;;;;4989822;28;20023;-78
2021/04/28 11:50:51;;;;;;;10.23;3.33;;;20.00;48.00;;;;;;5002748;28;20026;-77
2021/04/28 11:53:17;;;;;;;8.07;3.20;;;20.00;48.50;;;;;;5012940;28;20022;-77
2021/04/28 11:55:42;;;;;;;5.32;2.88;;;20.30;48.70;;;;;;5013516;28;20036;-78
2021/04/28 11:58:19;;;;;;;6.40;3.22;;;20.40;47.70;;;;;;5014296;28;20097;-78
2021/04/28 12:00:45;;;;;;;4.55;3.03;;;20.70;46.10;;;;;;5013972;28;20054;-77
2021/04/28 12:03:10;;;;;;;7.60;3.38;;;20.90;46.40;;;;;;5013418;28;20030;-78
2021/04/28 12:05:36;;;;;;;6.82;3.20;;;20.90;46.80;;;;;;5014007;28;20029;-76
2021/04/28 12:08:05;;;;;;;7.15;3.05;;;21.10;44.90;;;;;;5013858;28;20017;-77
2021/04/28 12:10:30;;;;;;;8.15;3.10;;;20.80;44.30;;;;;;5014857;28;20438;-78
2021/04/28 12:12:56;;;;;;;9.02;2.75;;;21.10;44.60;;;;;;5014655;28;20030;-76
2021/04/28 12:15:21;;;;;;;9.95;3.03;;;21.60;44.60;;;;;;5012472;28;20529;-79
2021/04/28 12:17:48;;;;;;;5.30;3.03;;;22.00;44.70;;;;;;5013816;28;20478;-77
2021/04/28 12:20:15;;;;;;;5.88;3.00;;;22.10;41.40;;;;;;5014169;28;20363;-77
2021/04/28 12:22:41;;;;;;;5.57;2.90;;;22.10;42.20;;;;;;5013002;28;20402;-78
2021/04/28 12:25:08;;;;;;;5.22;2.97;;;22.20;42.60;;;;;;5013944;28;20026;-77
2021/04/28 12:27:37;;;;;;;7.00;3.38;;;22.40;42.70;;;;;;5014635;28;20041;-78
2021/04/28 12:30:09;;;;;;;6.50;3.70;;;22.50;41.20;;;;;;5012526;28;20112;-78
2021/04/28 12:32:40;;;;;;;7.00;3.20;;;21.90;43.10;;;;;;5006033;28;20036;-77
2021/04/28 12:35:16;;;;;;;8.05;2.83;;;22.30;39.70;;;;;;5013611;28;20496;-79
2021/04/28 12:37:58;;;;;;;5.82;3.13;;;22.60;40.20;;;;;;5014260;28;20029;-77
2021/04/28 12:40:51;;;;;;;7.88;3.35;;;22.70;40.00;;;;;;5014260;28;20029;-78
2021/04/28 12:43:27;;;;;;;7.47;3.78;;;22.60;39.90;;;;;;5014089;28;20033;-78
2021/04/28 12:46:01;;;;;;;4.75;3.42;;;22.90;39.30;;;;;;5013677;28;20030;-78
2021/04/28 12:48:27;;;;;;;6.55;3.15;;;23.10;38.90;;;;;;5013944;28;20097;-78
2021/04/28 12:50:53;;;;;;;10.50;3.80;;;23.40;39.20;;;;;;5013004;28;20068;-79
2021/04/28 12:53:20;;;;;;;11.35;4.28;;;22.90;38.10;;;;;;5012980;28;20497;-78